createdAt,value
2018-08-03T00:00:46.037Z,23.77
2018-08-03T00:01:46.620Z,23.66
2018-08-03T00:02:47.184Z,23.65
2018-08-03T00:03:47.750Z,23.61
2018-08-03T00:04:48.315Z,23.62
2018-08-03T00:05:48.901Z,23.53
2018-08-03T00:06:49.466Z,23.49
2018-08-03T00:07:50.032Z,23.43
2018-08-03T00:08:50.596Z,23.43
2018-08-03T00:09:51.183Z,23.35
2018-08-03T00:10:51.748Z,23.32
2018-08-03T00:11:52.338Z,23.31
2018-08-03T00:12:52.901Z,23.25
2018-08-03T00:13:53.489Z,23.32
2018-08-03T00:14:54.054Z,23.25
2018-08-03T00:15:54.619Z,23.25
2018-08-03T00:16:55.185Z,23.24
2018-08-03T00:17:55.752Z,23.21
2018-08-03T00:18:56.317Z,23.12
2018-08-03T00:19:56.882Z,23.13
2018-08-03T00:20:57.445Z,23.20
2018-08-03T00:21:58.013Z,23.20
2018-08-03T00:22:58.578Z,23.13
2018-08-03T00:23:59.143Z,23.13
2018-08-03T00:24:59.708Z,23.06
2018-08-03T00:26:00.273Z,22.97
2018-08-03T00:27:00.858Z,23.02
2018-08-03T00:28:01.423Z,22.95
2018-08-03T00:29:01.989Z,22.93
2018-08-03T00:30:02.556Z,22.90
2018-08-03T00:31:03.120Z,22.83
2018-08-03T00:32:03.686Z,22.73
2018-08-03T00:33:04.272Z,22.68
2018-08-03T00:34:04.837Z,22.72
2018-08-03T00:35:05.403Z,22.63
2018-08-03T00:36:05.986Z,22.75
2018-08-03T00:37:06.550Z,22.75
2018-08-03T00:38:07.116Z,22.63
2018-08-03T00:39:07.679Z,22.63
2018-08-03T00:40:08.252Z,22.57
2018-08-03T00:41:08.830Z,22.60
2018-08-03T00:42:09.394Z,22.55
2018-08-03T00:43:09.960Z,22.58
2018-08-03T00:44:10.524Z,22.53
2018-08-03T00:45:11.090Z,22.40
2018-08-03T00:46:11.652Z,22.46
2018-08-03T00:47:12.218Z,22.32
2018-08-03T00:48:12.783Z,22.38
2018-08-03T00:49:13.367Z,22.35
2018-08-03T00:50:13.933Z,22.21
2018-08-03T00:51:14.498Z,22.24
2018-08-03T00:52:15.064Z,22.18
2018-08-03T00:53:15.628Z,22.26
2018-08-03T00:54:16.192Z,22.23
2018-08-03T00:55:16.777Z,22.18
2018-08-03T00:56:17.341Z,22.16
2018-08-03T00:57:17.929Z,22.18
2018-08-03T00:58:18.492Z,22.17
2018-08-03T00:59:19.057Z,22.13
2018-08-03T01:00:19.623Z,22.14
2018-08-03T01:01:20.189Z,22.24
2018-08-03T01:02:20.753Z,22.10
2018-08-03T01:03:21.319Z,22.14
2018-08-03T01:04:21.904Z,22.23
2018-08-03T01:05:22.467Z,22.17
2018-08-03T01:06:23.033Z,22.17
2018-08-03T01:07:23.618Z,22.16
2018-08-03T01:08:24.183Z,22.10
2018-08-03T01:09:24.771Z,22.02
2018-08-03T01:10:25.335Z,21.93
2018-08-03T01:11:25.899Z,22.03
2018-08-03T01:12:26.464Z,21.91
2018-08-03T01:13:27.032Z,21.99
2018-08-03T01:14:27.615Z,21.99
2018-08-03T01:15:28.179Z,22.01
2018-08-03T01:16:28.744Z,22.01
2018-08-03T01:17:29.306Z,21.93
2018-08-03T01:18:29.870Z,21.99
2018-08-03T01:19:30.435Z,21.95
2018-08-03T01:20:31.001Z,21.93
2018-08-03T01:21:31.564Z,21.99
2018-08-03T01:22:32.128Z,21.86
2018-08-03T01:23:32.715Z,21.92
2018-08-03T01:24:33.279Z,21.93
2018-08-03T01:25:33.846Z,21.80
2018-08-03T01:26:34.426Z,21.75
2018-08-03T01:27:34.988Z,21.79
2018-08-03T01:28:35.553Z,21.80
2018-08-03T01:29:36.117Z,21.79
2018-08-03T01:30:36.680Z,21.75
2018-08-03T01:31:37.264Z,21.80
2018-08-03T01:32:37.828Z,21.75
2018-08-03T01:33:38.392Z,21.73
2018-08-03T01:34:38.957Z,21.73
2018-08-03T01:35:39.522Z,21.72
2018-08-03T01:36:40.086Z,21.61
2018-08-03T01:37:40.676Z,21.65
2018-08-03T01:38:41.259Z,21.61
2018-08-03T01:39:41.823Z,21.60
2018-08-03T01:40:42.386Z,21.58
2018-08-03T01:41:42.951Z,21.51
2018-08-03T01:42:43.514Z,21.60
2018-08-03T01:43:44.078Z,21.54
2018-08-03T01:44:44.664Z,21.57
2018-08-03T01:45:45.232Z,21.54
2018-08-03T01:46:45.793Z,21.49
2018-08-03T01:47:46.358Z,21.46
2018-08-03T01:48:46.921Z,21.42
2018-08-03T01:49:47.488Z,21.39
2018-08-03T01:50:48.050Z,21.39
2018-08-03T01:51:48.616Z,21.36
2018-08-03T01:52:49.178Z,21.43
2018-08-03T01:53:49.743Z,21.37
2018-08-03T01:54:50.309Z,21.43
2018-08-03T01:55:50.872Z,21.32
2018-08-03T01:56:51.438Z,21.35
2018-08-03T01:57:52.000Z,21.35
2018-08-03T01:58:52.566Z,21.33
2018-08-03T01:59:53.128Z,21.28
2018-08-03T02:00:53.694Z,21.32
2018-08-03T02:01:54.277Z,21.37
2018-08-03T02:02:54.843Z,21.28
2018-08-03T02:03:55.405Z,21.22
2018-08-03T02:04:55.968Z,21.27
2018-08-03T02:05:56.534Z,21.35
2018-08-03T02:06:57.098Z,21.27
2018-08-03T02:07:57.662Z,21.21
2018-08-03T02:08:58.245Z,21.17
2018-08-03T02:09:58.810Z,21.20
2018-08-03T02:10:59.375Z,21.12
2018-08-03T02:11:59.960Z,21.18
2018-08-03T02:13:00.523Z,21.05
2018-08-03T02:14:01.089Z,21.12
2018-08-03T02:15:01.665Z,21.06
2018-08-03T02:16:02.237Z,21.02
2018-08-03T02:17:02.800Z,21.07
2018-08-03T02:18:03.365Z,21.09
2018-08-03T02:19:03.950Z,21.07
2018-08-03T02:20:04.515Z,21.00
2018-08-03T02:21:05.081Z,20.96
2018-08-03T02:22:05.666Z,20.98
2018-08-03T02:23:06.230Z,20.95
2018-08-03T02:24:06.795Z,20.96
2018-08-03T02:25:07.367Z,20.98
2018-08-03T02:26:07.922Z,20.87
2018-08-03T02:27:08.486Z,20.73
2018-08-03T02:28:09.052Z,20.82
2018-08-03T02:29:09.636Z,20.85
2018-08-03T02:30:10.200Z,20.81
2018-08-03T02:31:10.774Z,20.81
2018-08-03T02:32:11.347Z,20.77
2018-08-03T02:33:11.913Z,20.81
2018-08-03T02:34:12.475Z,20.69
2018-08-03T02:35:13.039Z,20.69
2018-08-03T02:36:13.602Z,20.72
2018-08-03T02:37:14.166Z,20.54
2018-08-03T02:38:14.734Z,20.50
2018-08-03T02:39:15.319Z,20.55
2018-08-03T02:40:15.881Z,20.55
2018-08-03T02:41:16.448Z,20.59
2018-08-03T02:42:17.030Z,20.60
2018-08-03T02:43:17.595Z,20.62
2018-08-03T02:44:18.154Z,20.63
2018-08-03T02:45:18.719Z,20.59
2018-08-03T02:46:19.283Z,20.62
2018-08-03T02:47:19.848Z,20.59
2018-08-03T02:48:20.410Z,20.54
2018-08-03T02:49:20.974Z,20.62
2018-08-03T02:50:21.537Z,20.62
2018-08-03T02:51:22.102Z,20.63
2018-08-03T02:52:22.666Z,20.65
2018-08-03T02:53:23.228Z,20.52
2018-08-03T02:54:23.791Z,20.40
2018-08-03T02:55:24.374Z,20.35
2018-08-03T02:56:24.961Z,20.35
2018-08-03T02:57:25.524Z,20.43
2018-08-03T02:58:26.089Z,20.42
2018-08-03T02:59:26.675Z,20.40
2018-08-03T03:00:27.241Z,20.48
2018-08-03T03:01:27.823Z,20.47
2018-08-03T03:02:28.388Z,20.52
2018-08-03T03:03:28.974Z,20.43
2018-08-03T03:04:29.554Z,20.44
2018-08-03T03:05:30.120Z,20.44
2018-08-03T03:06:30.682Z,20.48
2018-08-03T03:07:31.246Z,20.44
2018-08-03T03:08:31.808Z,20.47
2018-08-03T03:09:32.372Z,20.47
2018-08-03T03:10:32.936Z,20.43
2018-08-03T03:11:33.498Z,20.48
2018-08-03T03:12:34.062Z,20.42
2018-08-03T03:13:34.629Z,20.48
2018-08-03T03:14:35.190Z,20.42
2018-08-03T03:15:35.753Z,20.51
2018-08-03T03:16:36.341Z,20.42
2018-08-03T03:17:36.904Z,20.24
2018-08-03T03:18:37.468Z,20.40
2018-08-03T03:19:38.071Z,20.36
2018-08-03T03:20:38.596Z,20.43
2018-08-03T03:21:39.161Z,20.40
2018-08-03T03:22:39.727Z,20.36
2018-08-03T03:23:40.288Z,20.42
2018-08-03T03:24:40.875Z,20.35
2018-08-03T03:25:41.438Z,20.40
2018-08-03T03:26:42.002Z,20.25
2018-08-03T03:27:42.567Z,20.43
2018-08-03T03:28:43.131Z,20.42
2018-08-03T03:29:43.694Z,20.35
2018-08-03T03:30:44.257Z,20.36
2018-08-03T03:31:44.824Z,20.32
2018-08-03T03:32:45.482Z,20.29
2018-08-03T03:33:45.954Z,20.21
2018-08-03T03:34:46.535Z,20.35
2018-08-03T03:35:47.101Z,20.32
2018-08-03T03:36:47.665Z,20.26
2018-08-03T03:37:48.235Z,20.17
2018-08-03T03:38:48.816Z,20.32
2018-08-03T03:39:49.378Z,20.31
2018-08-03T03:40:49.946Z,20.17
2018-08-03T03:41:50.509Z,20.29
2018-08-03T03:42:51.073Z,20.19
2018-08-03T03:43:51.639Z,20.26
2018-08-03T03:44:52.203Z,20.17
2018-08-03T03:45:52.774Z,20.25
2018-08-03T03:46:53.333Z,20.13
2018-08-03T03:47:53.898Z,20.22
2018-08-03T03:48:54.464Z,20.13
2018-08-03T03:49:55.029Z,20.13
2018-08-03T03:50:55.613Z,20.09
2018-08-03T03:51:56.162Z,20.04
2018-08-03T03:52:56.748Z,20.11
2018-08-03T03:53:57.315Z,20.06
2018-08-03T03:54:57.900Z,20.16
2018-08-03T03:55:58.465Z,20.13
2018-08-03T03:56:59.032Z,20.14
2018-08-03T03:57:59.600Z,20.13
2018-08-03T03:59:00.163Z,20.14
2018-08-03T04:00:00.729Z,20.17
2018-08-03T04:01:01.297Z,20.13
2018-08-03T04:02:01.863Z,20.10
2018-08-03T04:03:02.428Z,20.13
2018-08-03T04:04:02.996Z,20.07
2018-08-03T04:05:03.562Z,20.10
2018-08-03T04:06:04.128Z,20.14
2018-08-03T04:07:04.697Z,20.17
2018-08-03T04:08:05.263Z,20.16
2018-08-03T04:09:05.830Z,20.13
2018-08-03T04:10:06.396Z,19.98
2018-08-03T04:11:06.963Z,20.02
2018-08-03T04:12:07.529Z,20.03
2018-08-03T04:13:08.096Z,20.03
2018-08-03T04:14:08.662Z,20.04
2018-08-03T04:15:09.231Z,19.98
2018-08-03T04:16:09.816Z,20.04
2018-08-03T04:17:10.407Z,20.04
2018-08-03T04:18:10.976Z,19.95
2018-08-03T04:19:11.564Z,19.95
2018-08-03T04:20:12.131Z,19.89
2018-08-03T04:21:12.701Z,19.96
2018-08-03T04:22:13.266Z,19.99
2018-08-03T04:23:13.855Z,19.96
2018-08-03T04:24:14.422Z,20.02
2018-08-03T04:25:14.990Z,20.02
2018-08-03T04:26:15.557Z,20.07
2018-08-03T04:27:16.125Z,20.04
2018-08-03T04:28:16.694Z,20.02
2018-08-03T04:29:17.260Z,20.10
2018-08-03T04:30:17.828Z,20.17
2018-08-03T04:31:18.398Z,20.17
2018-08-03T04:32:18.984Z,20.11
2018-08-03T04:33:19.553Z,20.34
2018-08-03T04:34:20.121Z,20.31
2018-08-03T04:35:20.690Z,20.35
2018-08-03T04:36:21.256Z,20.29
2018-08-03T04:37:21.823Z,20.28
2018-08-03T04:38:22.411Z,20.31
2018-08-03T04:39:22.978Z,20.31
2018-08-03T04:40:23.566Z,20.40
2018-08-03T04:41:24.135Z,20.54
2018-08-03T04:42:24.715Z,20.55
2018-08-03T04:43:25.292Z,20.59
2018-08-03T04:44:25.860Z,20.51
2018-08-03T04:45:26.459Z,20.52
2018-08-03T04:46:27.041Z,20.60
2018-08-03T04:47:27.626Z,20.59
2018-08-03T04:48:28.217Z,20.60
2018-08-03T04:49:28.809Z,20.69
2018-08-03T04:50:29.380Z,20.66
2018-08-03T04:51:29.952Z,20.80
2018-08-03T04:52:30.525Z,20.98
2018-08-03T04:53:31.099Z,21.17
2018-08-03T04:54:31.665Z,21.30
2018-08-03T04:55:32.234Z,21.25
2018-08-03T04:56:32.828Z,21.30
2018-08-03T04:57:33.400Z,21.70
2018-08-03T04:58:33.970Z,21.86
2018-08-03T04:59:34.539Z,22.23
2018-08-03T05:00:35.110Z,22.38
2018-08-03T05:01:35.683Z,22.65
2018-08-03T05:02:36.258Z,22.95
2018-08-03T05:03:36.833Z,23.32
2018-08-03T05:04:37.419Z,23.53
2018-08-03T05:05:37.975Z,23.56
2018-08-03T05:06:38.549Z,23.79
2018-08-03T05:07:39.124Z,23.79
2018-08-03T05:08:39.699Z,23.72
2018-08-03T05:09:40.272Z,23.77
2018-08-03T05:10:40.844Z,23.99
2018-08-03T05:11:41.417Z,24.08
2018-08-03T05:12:42.014Z,24.14
2018-08-03T05:13:42.590Z,24.31
2018-08-03T05:14:43.165Z,24.51
2018-08-03T05:15:43.740Z,24.83
2018-08-03T05:16:44.311Z,24.81
2018-08-03T05:17:44.907Z,24.79
2018-08-03T05:18:45.484Z,24.73
2018-08-03T05:19:46.061Z,24.70
2018-08-03T05:20:46.635Z,24.95
2018-08-03T05:21:47.210Z,25.17
2018-08-03T05:22:47.788Z,25.47
2018-08-03T05:23:48.385Z,25.65
2018-08-03T05:24:48.983Z,25.86
2018-08-03T05:25:49.561Z,26.02
2018-08-03T05:26:50.135Z,26.25
2018-08-03T05:27:50.712Z,26.37
2018-08-03T05:28:51.291Z,26.36
2018-08-03T05:29:51.873Z,26.47
2018-08-03T05:30:52.471Z,26.63
2018-08-03T05:31:53.050Z,26.47
2018-08-03T05:32:53.628Z,26.34
2018-08-03T05:33:54.207Z,25.95
2018-08-03T05:34:54.785Z,25.63
2018-08-03T05:35:55.424Z,25.32
2018-08-03T05:36:55.943Z,25.01
2018-08-03T05:37:56.521Z,25.04
2018-08-03T05:38:57.099Z,24.84
2018-08-03T05:39:57.672Z,24.99
2018-08-03T05:40:58.248Z,25.33
2018-08-03T05:41:58.823Z,25.51
2018-08-03T05:42:59.402Z,25.72
2018-08-03T05:43:59.999Z,25.90
2018-08-03T05:45:00.575Z,25.95
2018-08-03T05:46:01.173Z,25.76
2018-08-03T05:47:01.752Z,25.44
2018-08-03T05:48:02.350Z,25.25
2018-08-03T05:49:02.927Z,25.20
2018-08-03T05:50:03.507Z,25.43
2018-08-03T05:51:04.083Z,25.78
2018-08-03T05:52:04.682Z,25.94
2018-08-03T05:53:05.264Z,26.13
2018-08-03T05:54:05.851Z,26.34
2018-08-03T05:55:06.443Z,26.44
2018-08-03T05:56:07.023Z,26.65
2018-08-03T05:57:07.601Z,26.91
2018-08-03T05:58:08.181Z,26.87
2018-08-03T05:59:08.756Z,26.76
2018-08-03T06:00:09.338Z,26.43
2018-08-03T06:01:09.913Z,26.21
2018-08-03T06:02:10.493Z,26.24
2018-08-03T06:03:11.072Z,26.41
2018-08-03T06:04:11.676Z,26.81
2018-08-03T06:05:12.276Z,26.93
2018-08-03T06:06:12.856Z,27.10
2018-08-03T06:07:13.436Z,26.99
2018-08-03T06:08:14.071Z,26.95
2018-08-03T06:09:14.598Z,27.21
2018-08-03T06:10:15.178Z,27.36
2018-08-03T06:11:15.758Z,27.55
2018-08-03T06:12:16.340Z,27.80
2018-08-03T06:13:16.917Z,28.26
2018-08-03T06:14:17.495Z,28.36
2018-08-03T06:15:18.098Z,28.55
2018-08-03T06:16:18.680Z,28.92
2018-08-03T06:17:19.259Z,29.13
2018-08-03T06:18:19.860Z,29.35
2018-08-03T06:19:20.442Z,29.53
2018-08-03T06:20:21.024Z,29.78
2018-08-03T06:21:21.606Z,30.16
2018-08-03T06:22:22.191Z,30.27
2018-08-03T06:23:22.771Z,30.35
2018-08-03T06:24:23.352Z,30.49
2018-08-03T06:25:23.933Z,30.64
2018-08-03T06:26:24.515Z,31.13
2018-08-03T06:27:25.097Z,31.45
2018-08-03T06:28:25.721Z,31.47
2018-08-03T06:29:26.278Z,31.61
2018-08-03T06:30:26.864Z,31.87
2018-08-03T06:31:27.446Z,31.87
2018-08-03T06:32:28.049Z,31.84
2018-08-03T06:33:28.634Z,32.02
2018-08-03T06:34:29.217Z,32.05
2018-08-03T06:35:29.802Z,32.07
2018-08-03T06:36:30.398Z,32.03
2018-08-03T06:37:30.968Z,32.11
2018-08-03T06:38:31.551Z,31.99
2018-08-03T06:39:32.134Z,31.97
2018-08-03T06:40:32.718Z,32.40
2018-08-03T06:41:33.301Z,32.49
2018-08-03T06:42:33.908Z,32.33
2018-08-03T06:43:34.492Z,32.15
2018-08-03T06:44:35.079Z,32.18
2018-08-03T06:45:35.659Z,32.32
2018-08-03T06:46:36.264Z,32.52
2018-08-03T06:47:36.848Z,32.62
2018-08-03T06:48:37.454Z,32.92
2018-08-03T06:49:38.042Z,33.03
2018-08-03T06:50:38.652Z,33.26
2018-08-03T06:51:39.230Z,33.45
2018-08-03T06:52:39.813Z,33.37
2018-08-03T06:53:40.432Z,33.00
2018-08-03T06:54:40.980Z,32.83
2018-08-03T06:55:41.563Z,32.98
2018-08-03T06:56:42.147Z,32.61
2018-08-03T06:57:42.736Z,32.71
2018-08-03T06:58:43.316Z,32.74
2018-08-03T06:59:43.919Z,32.85
2018-08-03T07:00:44.516Z,33.14
2018-08-03T07:01:45.114Z,33.43
2018-08-03T07:02:45.770Z,33.70
2018-08-03T07:03:46.300Z,33.87
2018-08-03T07:04:46.883Z,33.97
2018-08-03T07:05:47.465Z,34.13
2018-08-03T07:06:48.049Z,34.19
2018-08-03T07:07:48.633Z,34.11
2018-08-03T07:08:49.219Z,34.27
2018-08-03T07:09:49.803Z,34.65
2018-08-03T07:10:50.388Z,34.74
2018-08-03T07:11:50.971Z,34.74
2018-08-03T07:12:51.554Z,34.77
2018-08-03T07:13:52.139Z,34.81
2018-08-03T07:14:52.763Z,34.50
2018-08-03T07:15:53.315Z,34.32
2018-08-03T07:16:53.914Z,33.97
2018-08-03T07:17:54.498Z,33.82
2018-08-03T07:18:55.082Z,34.13
2018-08-03T07:19:55.735Z,34.39
2018-08-03T07:20:56.249Z,34.60
2018-08-03T07:21:56.837Z,34.60
2018-08-03T07:22:57.419Z,34.42
2018-08-03T07:23:58.006Z,34.21
2018-08-03T07:24:58.588Z,34.32
2018-08-03T07:25:59.259Z,34.56
2018-08-03T07:26:59.778Z,34.74
2018-08-03T07:28:00.384Z,34.84
2018-08-03T07:29:00.971Z,34.53
2018-08-03T07:30:01.557Z,34.60
2018-08-03T07:31:02.142Z,34.65
2018-08-03T07:32:02.730Z,34.80
2018-08-03T07:33:03.333Z,34.88
2018-08-03T07:34:03.918Z,35.10
2018-08-03T07:35:04.503Z,35.33
2018-08-03T07:36:05.090Z,35.54
2018-08-03T07:37:05.698Z,35.50
2018-08-03T07:38:06.309Z,35.54
2018-08-03T07:39:06.874Z,35.70
2018-08-03T07:40:07.533Z,35.79
2018-08-03T07:41:08.064Z,35.84
2018-08-03T07:42:08.652Z,36.04
2018-08-03T07:43:09.285Z,36.12
2018-08-03T07:44:09.827Z,36.12
2018-08-03T07:45:10.434Z,36.00
2018-08-03T07:46:11.022Z,35.85
2018-08-03T07:47:11.605Z,36.03
2018-08-03T07:48:12.190Z,36.20
2018-08-03T07:49:12.777Z,36.27
2018-08-03T07:50:13.362Z,36.33
2018-08-03T07:51:13.950Z,36.20
2018-08-03T07:52:14.537Z,36.23
2018-08-03T07:53:15.125Z,36.23
2018-08-03T07:54:15.711Z,36.23
2018-08-03T07:55:16.299Z,36.19
2018-08-03T07:56:16.885Z,36.50
2018-08-03T07:57:17.474Z,36.64
2018-08-03T07:58:18.061Z,36.97
2018-08-03T07:59:18.648Z,37.04
2018-08-03T08:00:19.241Z,37.24
2018-08-03T08:01:19.845Z,37.51
2018-08-03T08:02:20.430Z,37.55
2018-08-03T08:03:21.165Z,37.70
2018-08-03T08:04:21.619Z,37.69
2018-08-03T08:05:22.205Z,37.38
2018-08-03T08:06:22.830Z,37.36
2018-08-03T08:07:23.379Z,37.38
2018-08-03T08:08:23.967Z,37.20
2018-08-03T08:09:24.554Z,37.08
2018-08-03T08:10:25.141Z,37.17
2018-08-03T08:11:25.727Z,37.19
2018-08-03T08:12:26.315Z,37.21
2018-08-03T08:13:26.900Z,37.05
2018-08-03T08:14:27.507Z,36.79
2018-08-03T08:15:28.093Z,37.07
2018-08-03T08:16:28.677Z,36.85
2018-08-03T08:17:29.266Z,36.87
2018-08-03T08:18:29.849Z,37.04
2018-08-03T08:19:30.435Z,36.98
2018-08-03T08:20:31.020Z,37.26
2018-08-03T08:21:31.635Z,37.26
2018-08-03T08:22:32.243Z,37.47
2018-08-03T08:23:32.829Z,37.56
2018-08-03T08:24:33.414Z,37.50
2018-08-03T08:25:33.999Z,37.31
2018-08-03T08:26:34.598Z,37.43
2018-08-03T08:27:35.187Z,37.54
2018-08-03T08:28:35.768Z,37.21
2018-08-03T08:29:36.353Z,37.24
2018-08-03T08:30:36.940Z,37.38
2018-08-03T08:31:37.565Z,37.36
2018-08-03T08:32:38.115Z,37.38
2018-08-03T08:33:38.723Z,37.61
2018-08-03T08:34:39.307Z,37.71
2018-08-03T08:35:39.897Z,37.50
2018-08-03T08:36:40.483Z,37.41
2018-08-03T08:37:41.071Z,37.43
2018-08-03T08:38:41.654Z,37.42
2018-08-03T08:39:42.240Z,37.39
2018-08-03T08:40:42.823Z,37.31
2018-08-03T08:41:43.409Z,37.26
2018-08-03T08:42:43.995Z,37.54
2018-08-03T08:43:44.643Z,37.73
2018-08-03T08:44:45.169Z,37.89
2018-08-03T08:45:45.758Z,37.71
2018-08-03T08:46:46.344Z,37.54
2018-08-03T08:47:46.934Z,37.54
2018-08-03T08:48:47.519Z,37.78
2018-08-03T08:49:48.105Z,38.08
2018-08-03T08:50:48.692Z,38.33
2018-08-03T08:51:49.279Z,38.17
2018-08-03T08:52:49.864Z,38.27
2018-08-03T08:53:50.451Z,38.44
2018-08-03T08:54:51.100Z,38.59
2018-08-03T08:55:51.620Z,38.78
2018-08-03T08:56:52.205Z,38.90
2018-08-03T08:57:52.790Z,38.54
2018-08-03T08:58:53.375Z,38.52
2018-08-03T08:59:53.964Z,38.67
2018-08-03T09:00:54.667Z,38.74
2018-08-03T09:01:55.166Z,38.85
2018-08-03T09:02:55.772Z,38.78
2018-08-03T09:03:56.358Z,38.86
2018-08-03T09:04:56.945Z,38.68
2018-08-03T09:05:57.532Z,38.74
2018-08-03T09:06:58.121Z,38.80
2018-08-03T09:07:58.703Z,38.86
2018-08-03T09:08:59.289Z,38.89
2018-08-03T09:09:59.875Z,39.20
2018-08-03T09:11:00.462Z,39.15
2018-08-03T09:12:01.051Z,39.09
2018-08-03T09:13:01.650Z,38.80
2018-08-03T09:14:02.247Z,38.61
2018-08-03T09:15:02.833Z,38.71
2018-08-03T09:16:03.419Z,38.92
2018-08-03T09:17:04.006Z,38.99
2018-08-03T09:18:04.591Z,38.96
2018-08-03T09:19:05.177Z,39.05
2018-08-03T09:20:05.763Z,39.01
2018-08-03T09:21:06.351Z,38.96
2018-08-03T09:22:06.944Z,38.60
2018-08-03T09:23:07.527Z,37.89
2018-08-03T09:24:08.112Z,37.46
2018-08-03T09:25:08.703Z,37.35
2018-08-03T09:26:09.287Z,37.62
2018-08-03T09:27:09.882Z,37.99
2018-08-03T09:28:10.465Z,38.23
2018-08-03T09:29:11.051Z,38.22
2018-08-03T09:30:11.658Z,38.36
2018-08-03T09:31:12.245Z,38.08
2018-08-03T09:32:12.830Z,37.76
2018-08-03T09:33:13.416Z,37.76
2018-08-03T09:34:14.001Z,37.86
2018-08-03T09:35:14.589Z,37.93
2018-08-03T09:36:15.198Z,37.98
2018-08-03T09:37:15.781Z,38.33
2018-08-03T09:38:16.366Z,38.52
2018-08-03T09:39:16.976Z,38.30
2018-08-03T09:40:17.563Z,38.18
2018-08-03T09:41:18.151Z,38.07
2018-08-03T09:42:18.739Z,38.15
2018-08-03T09:43:19.326Z,38.26
2018-08-03T09:44:19.913Z,38.54
2018-08-03T09:45:20.499Z,38.71
2018-08-03T09:46:21.088Z,38.83
2018-08-03T09:47:21.675Z,38.82
2018-08-03T09:48:22.261Z,38.89
2018-08-03T09:49:22.856Z,38.66
2018-08-03T09:50:23.440Z,38.66
2018-08-03T09:51:24.028Z,38.59
2018-08-03T09:52:24.614Z,38.37
2018-08-03T09:53:25.203Z,38.61
2018-08-03T09:54:25.801Z,38.73
2018-08-03T09:55:26.379Z,38.82
2018-08-03T09:56:26.963Z,39.01
2018-08-03T09:57:27.547Z,38.76
2018-08-03T09:58:28.133Z,39.05
2018-08-03T09:59:28.719Z,39.10
2018-08-03T10:00:29.305Z,39.12
2018-08-03T10:01:29.890Z,39.10
2018-08-03T10:02:30.476Z,39.03
2018-08-03T10:03:31.205Z,39.17
2018-08-03T10:04:31.747Z,38.99
2018-08-03T10:05:32.333Z,38.76
2018-08-03T10:06:32.920Z,38.82
2018-08-03T10:07:33.507Z,39.08
2018-08-03T10:08:34.093Z,39.01
2018-08-03T10:09:34.688Z,38.99
2018-08-03T10:10:35.364Z,39.10
2018-08-03T10:11:35.868Z,38.92
2018-08-03T10:12:36.452Z,38.99
2018-08-03T10:13:37.038Z,38.79
2018-08-03T10:14:37.626Z,38.66
2018-08-03T10:15:38.252Z,38.52
2018-08-03T10:16:38.797Z,38.55
2018-08-03T10:17:39.383Z,38.73
2018-08-03T10:18:39.972Z,38.57
2018-08-03T10:19:40.554Z,38.80
2018-08-03T10:20:41.142Z,39.12
2018-08-03T10:21:41.752Z,39.15
2018-08-03T10:22:42.358Z,39.44
2018-08-03T10:23:42.946Z,39.44
2018-08-03T10:24:43.532Z,39.62
2018-08-03T10:25:44.120Z,39.44
2018-08-03T10:26:44.723Z,39.46
2018-08-03T10:27:45.317Z,39.69
2018-08-03T10:28:45.906Z,39.77
2018-08-03T10:29:46.524Z,39.64
2018-08-03T10:30:47.099Z,39.25
2018-08-03T10:31:47.683Z,39.03
2018-08-03T10:32:48.269Z,39.08
2018-08-03T10:33:48.856Z,39.20
2018-08-03T10:34:49.439Z,39.43
2018-08-03T10:35:50.028Z,39.71
2018-08-03T10:36:50.611Z,39.91
2018-08-03T10:37:51.198Z,39.84
2018-08-03T10:38:51.805Z,39.93
2018-08-03T10:39:52.391Z,40.08
2018-08-03T10:40:53.000Z,40.26
2018-08-03T10:41:53.584Z,40.36
2018-08-03T10:42:54.256Z,40.53
2018-08-03T10:43:54.758Z,40.43
2018-08-03T10:44:55.347Z,40.38
2018-08-03T10:45:55.953Z,39.70
2018-08-03T10:46:56.540Z,39.76
2018-08-03T10:47:57.130Z,39.96
2018-08-03T10:48:57.710Z,40.18
2018-08-03T10:49:58.317Z,40.20
2018-08-03T10:50:58.903Z,39.99
2018-08-03T10:51:59.489Z,39.89
2018-08-03T10:53:00.076Z,39.71
2018-08-03T10:54:00.661Z,39.69
2018-08-03T10:55:01.248Z,39.83
2018-08-03T10:56:01.835Z,39.86
2018-08-03T10:57:02.422Z,39.98
2018-08-03T10:58:03.007Z,40.10
2018-08-03T10:59:03.592Z,40.20
2018-08-03T11:00:04.178Z,40.26
2018-08-03T11:01:04.762Z,40.40
2018-08-03T11:02:05.351Z,40.21
2018-08-03T11:03:05.938Z,40.40
2018-08-03T11:04:06.545Z,40.68
2018-08-03T11:05:07.131Z,40.68
2018-08-03T11:06:07.717Z,40.57
2018-08-03T11:07:08.305Z,40.43
2018-08-03T11:08:08.913Z,40.32
2018-08-03T11:09:09.512Z,40.43
2018-08-03T11:10:10.101Z,40.64
2018-08-03T11:11:10.688Z,40.83
2018-08-03T11:12:11.276Z,40.89
2018-08-03T11:13:11.884Z,40.61
2018-08-03T11:14:12.492Z,40.18
2018-08-03T11:15:13.099Z,39.96
2018-08-03T11:16:13.686Z,40.30
2018-08-03T11:17:14.272Z,40.59
2018-08-03T11:18:14.856Z,40.69
2018-08-03T11:19:15.441Z,40.75
2018-08-03T11:20:16.028Z,40.83
2018-08-03T11:21:16.615Z,41.12
2018-08-03T11:22:17.201Z,41.27
2018-08-03T11:23:17.810Z,41.21
2018-08-03T11:24:18.493Z,41.40
2018-08-03T11:25:18.983Z,41.59
2018-08-03T11:26:19.570Z,41.71
2018-08-03T11:27:20.157Z,41.52
2018-08-03T11:28:20.743Z,41.56
2018-08-03T11:29:21.329Z,41.65
2018-08-03T11:30:21.936Z,41.74
2018-08-03T11:31:22.522Z,42.03
2018-08-03T11:32:23.106Z,42.04
2018-08-03T11:33:23.693Z,41.91
2018-08-03T11:34:24.280Z,41.98
2018-08-03T11:35:24.868Z,41.56
2018-08-03T11:36:25.455Z,41.40
2018-08-03T11:37:26.042Z,41.24
2018-08-03T11:38:26.627Z,41.06
2018-08-03T11:39:27.233Z,40.96
2018-08-03T11:40:27.819Z,40.98
2018-08-03T11:41:28.427Z,41.10
2018-08-03T11:42:29.038Z,41.52
2018-08-03T11:43:29.621Z,41.35
2018-08-03T11:44:30.208Z,41.25
2018-08-03T11:45:30.794Z,41.18
2018-08-03T11:46:31.377Z,41.06
2018-08-03T11:47:31.962Z,41.21
2018-08-03T11:48:32.549Z,41.47
2018-08-03T11:49:33.135Z,41.66
2018-08-03T11:50:33.723Z,41.76
2018-08-03T11:51:34.310Z,41.78
2018-08-03T11:52:34.897Z,41.69
2018-08-03T11:53:35.484Z,41.49
2018-08-03T11:54:36.094Z,41.22
2018-08-03T11:55:36.703Z,41.43
2018-08-03T11:56:37.310Z,41.78
2018-08-03T11:57:37.895Z,42.18
2018-08-03T11:58:38.485Z,42.41
2018-08-03T11:59:39.064Z,42.57
2018-08-03T12:00:39.651Z,42.78
2018-08-03T12:01:40.237Z,42.27
2018-08-03T12:02:40.829Z,41.94
2018-08-03T12:03:41.411Z,42.13
2018-08-03T12:04:42.000Z,42.52
2018-08-03T12:05:42.609Z,42.75
2018-08-03T12:06:43.218Z,42.72
2018-08-03T12:07:43.826Z,42.98
2018-08-03T12:08:44.414Z,43.25
2018-08-03T12:09:45.001Z,43.33
2018-08-03T12:10:45.590Z,43.49
2018-08-03T12:11:46.196Z,43.68
2018-08-03T12:12:46.782Z,43.95
2018-08-03T12:13:47.367Z,44.04
2018-08-03T12:14:47.976Z,44.07
2018-08-03T12:15:48.568Z,44.00
2018-08-03T12:16:49.153Z,44.07
2018-08-03T12:17:49.804Z,44.27
2018-08-03T12:18:50.329Z,44.20
2018-08-03T12:19:50.918Z,44.16
2018-08-03T12:20:51.507Z,43.95
2018-08-03T12:21:52.096Z,44.16
2018-08-03T12:22:52.685Z,44.23
2018-08-03T12:23:53.333Z,44.39
2018-08-03T12:24:53.859Z,44.53
2018-08-03T12:25:54.446Z,44.74
2018-08-03T12:26:55.035Z,44.78
2018-08-03T12:27:55.643Z,44.99
2018-08-03T12:28:56.232Z,44.88
2018-08-03T12:29:56.821Z,44.67
2018-08-03T12:30:57.409Z,44.31
2018-08-03T12:31:57.999Z,44.19
2018-08-03T12:32:58.587Z,44.13
2018-08-03T12:33:59.180Z,44.17
2018-08-03T12:34:59.764Z,44.24
2018-08-03T12:36:00.353Z,44.48
2018-08-03T12:37:01.020Z,44.65
2018-08-03T12:38:01.553Z,44.89
2018-08-03T12:39:02.139Z,45.18
2018-08-03T12:40:02.725Z,45.31
2018-08-03T12:41:03.312Z,45.45
2018-08-03T12:42:03.900Z,45.65
2018-08-03T12:43:04.488Z,45.38
2018-08-03T12:44:05.077Z,44.74
2018-08-03T12:45:05.664Z,44.51
2018-08-03T12:46:06.327Z,44.39
2018-08-03T12:47:06.837Z,44.78
2018-08-03T12:48:07.422Z,45.21
2018-08-03T12:49:08.008Z,45.11
2018-08-03T12:50:08.615Z,45.11
2018-08-03T12:51:09.206Z,44.92
2018-08-03T12:52:09.812Z,44.88
2018-08-03T12:53:10.400Z,44.78
2018-08-03T12:54:10.988Z,44.97
2018-08-03T12:55:11.579Z,45.30
2018-08-03T12:56:12.163Z,44.95
2018-08-03T12:57:12.749Z,44.85
2018-08-03T12:58:13.358Z,44.74
2018-08-03T12:59:13.945Z,44.57
2018-08-03T13:00:14.532Z,44.36